メインページ
METAR-TAF:

METAR-TAF

空港 :

防府北基地

防府, 日本

緯度: 34-02N, 経度: 131-33E, 海抜: 2m

現時点の気象観測

当レポートは1時間5分前の06:18(UTC)に作成
の風 9kt、東/北東から南東の間で変化する
気温 28°C
湿度 66%
気圧 1008 hPa
視程10km以上
高度3000ftの雲はほとんどない
高度4500ftの千切れ雲あり
高度8000ftの千切れ雲あり
弱いにわか雨

METAR: RJOF 200618Z 10009KT 070V130 9999 -SHRA FEW030 BKN045 BKN080 28/21 Q1008 RMK 1CU030 6CU045 7AC080 A2977

時間: 16:23 (07:23 UTC)


TAF: 見つかりません

4,000以上の空港の気象観測と天気予報(METAR報とTAF報)

利用可能な観測所は地図上に黄色い丸と赤い丸で示す。

丸の上にカーソルを重ねると観測所名を参照できる。

次にクリックすると気象観測と天気予報を参照できる。

マップの切り替え:黒色「×」印の緑ボタンをクリックして拡大、「-」印の緑ボタンをクリックして縮小、緑色の三角印をクリックして隣りの地図に切り替え


METAR-TAF: